DAL1649 KFZY-KBOS
Flight info
| Callsign | DAL1649 |
|---|---|
| Flight time | 0h 57m |
| Altitude | 19000 |
| Route | SAEZE PONCT JFUND2 |
| Aircraft | DC6/M-SDE1FGHIRWXY/S |
Departure
| Time | 2026-05-04 21:21 |
|---|---|
| Airport | Oswego County Airport (KFZY) |
Arrival
| Time | 2026-05-04 22:19 |
|---|---|
| Airport | Boston Logan International Airport (KBOS) |
| Time | Latitude | Longitude | Altitude | Speed | Heading |
|---|---|---|---|---|---|
| 2026-05-04 20:59 | 43.34969 | -76.39203 | 469 ft | 0 kts | 49° |
| 2026-05-04 21:08 | 43.34970 | -76.39203 | 469 ft | 0 kts | 49° |
| 2026-05-04 21:08 | 43.34990 | -76.39182 | 469 ft | 10 kts | 30° |
| 2026-05-04 21:08 | 43.35079 | -76.39037 | 469 ft | 19 kts | 90° |
| 2026-05-04 21:08 | 43.34816 | -76.38620 | 475 ft | 42 kts | 136° |
| 2026-05-04 21:09 | 43.34577 | -76.38313 | 478 ft | 27 kts | 137° |
| 2026-05-04 21:09 | 43.34540 | -76.38255 | 479 ft | 5 kts | 95° |
| 2026-05-04 21:09 | 43.34561 | -76.38205 | 480 ft | 2 kts | 46° |
| 2026-05-04 21:09 | 43.34565 | -76.38200 | 477 ft | 0 kts | 46° |
| 2026-05-04 21:10 | 43.34565 | -76.38199 | 477 ft | 0 kts | 46° |
| 2026-05-04 21:10 | 43.34566 | -76.38198 | 478 ft | 2 kts | 46° |
| 2026-05-04 21:11 | 43.34601 | -76.38159 | 481 ft | 7 kts | 5° |
| 2026-05-04 21:11 | 43.34629 | -76.38178 | 481 ft | 0 kts | 318° |
| 2026-05-04 21:20 | 43.34659 | -76.38216 | 483 ft | 23 kts | 316° |
| 2026-05-04 21:20 | 43.34888 | -76.38510 | 475 ft | 65 kts | 315° |
| 2026-05-04 21:20 | 43.35299 | -76.39042 | 469 ft | 97 kts | 315° |
| 2026-05-04 21:20 | 43.35811 | -76.39728 | 532 ft | 105 kts | 311° |
| 2026-05-04 21:21 | 43.36277 | -76.40441 | 743 ft | 96 kts | 298° |
| 2026-05-04 21:21 | 43.36676 | -76.41177 | 884 ft | 96 kts | 293° |
| 2026-05-04 21:21 | 43.36973 | -76.41984 | 1015 ft | 93 kts | 282° |
| 2026-05-04 21:21 | 43.37204 | -76.42816 | 1173 ft | 92 kts | 278° |
| 2026-05-04 21:22 | 43.37389 | -76.43691 | 1245 ft | 99 kts | 274° |
| 2026-05-04 21:22 | 43.37516 | -76.44636 | 1367 ft | 101 kts | 269° |
| 2026-05-04 21:22 | 43.37711 | -76.45563 | 1442 ft | 106 kts | 291° |
| 2026-05-04 21:22 | 43.38352 | -76.46173 | 1452 ft | 123 kts | 338° |
| 2026-05-04 21:23 | 43.39193 | -76.45878 | 1475 ft | 135 kts | 35° |
| 2026-05-04 21:23 | 43.39753 | -76.44826 | 1608 ft | 139 kts | 53° |
| 2026-05-04 21:23 | 43.40311 | -76.43686 | 1674 ft | 151 kts | 53° |
| 2026-05-04 21:23 | 43.40945 | -76.42518 | 1871 ft | 151 kts | 50° |
| 2026-05-04 21:24 | 43.41305 | -76.41246 | 2127 ft | 144 kts | 81° |
| 2026-05-04 21:24 | 43.41251 | -76.39818 | 2192 ft | 154 kts | 109° |
| 2026-05-04 21:24 | 43.40943 | -76.38425 | 2366 ft | 156 kts | 108° |
| 2026-05-04 21:24 | 43.40649 | -76.36907 | 2420 ft | 170 kts | 108° |
| 2026-05-04 21:25 | 43.40402 | -76.35304 | 2684 ft | 171 kts | 102° |
| 2026-05-04 21:25 | 43.40312 | -76.33716 | 2945 ft | 165 kts | 99° |
| 2026-05-04 21:25 | 43.40128 | -76.32126 | 3056 ft | 169 kts | 103° |
| 2026-05-04 21:25 | 43.39882 | -76.30555 | 3241 ft | 167 kts | 116° |
| 2026-05-04 21:26 | 43.39246 | -76.29314 | 3438 ft | 160 kts | 135° |
| 2026-05-04 21:26 | 43.38634 | -76.27999 | 3680 ft | 162 kts | 127° |
| 2026-05-04 21:26 | 43.38060 | -76.26675 | 3861 ft | 161 kts | 127° |
| 2026-05-04 21:26 | 43.37481 | -76.25375 | 4011 ft | 162 kts | 127° |
| 2026-05-04 21:27 | 43.36883 | -76.24042 | 4168 ft | 161 kts | 127° |
| 2026-05-04 21:27 | 43.36296 | -76.22730 | 4323 ft | 161 kts | 127° |
| 2026-05-04 21:27 | 43.33430 | -76.16329 | 5137 ft | 161 kts | 127° |
| 2026-05-04 21:27 | 43.28718 | -76.05776 | 6362 ft | 163 kts | 127° |
| 2026-05-04 21:28 | 43.27741 | -75.95654 | 6954 ft | 173 kts | 120° |
| 2026-05-04 21:28 | 43.27020 | -75.94423 | 7112 ft | 163 kts | 134° |
| 2026-05-04 21:28 | 43.26568 | -75.92974 | 7255 ft | 168 kts | 108° |
| 2026-05-04 21:28 | 43.26241 | -75.91435 | 7354 ft | 168 kts | 114° |
| 2026-05-04 21:29 | 43.25845 | -75.89926 | 7461 ft | 169 kts | 114° |
| 2026-05-04 21:29 | 43.25469 | -75.88389 | 7537 ft | 174 kts | 112° |
| 2026-05-04 21:29 | 43.25073 | -75.86778 | 7553 ft | 183 kts | 112° |
| 2026-05-04 21:29 | 43.24647 | -75.85076 | 7547 ft | 193 kts | 113° |
| 2026-05-04 21:30 | 43.24201 | -75.83289 | 7544 ft | 203 kts | 112° |
| 2026-05-04 21:30 | 43.23747 | -75.81420 | 7538 ft | 211 kts | 112° |
| 2026-05-04 21:30 | 43.23272 | -75.79476 | 7533 ft | 219 kts | 112° |
| 2026-05-04 21:30 | 43.22778 | -75.77467 | 7536 ft | 226 kts | 112° |
| 2026-05-04 21:31 | 43.21751 | -75.73295 | 7576 ft | 234 kts | 112° |
| 2026-05-04 21:31 | 43.21235 | -75.71200 | 7751 ft | 230 kts | 112° |
| 2026-05-04 21:31 | 43.20728 | -75.69137 | 7929 ft | 227 kts | 112° |
| 2026-05-04 21:32 | 43.20225 | -75.67092 | 8074 ft | 225 kts | 112° |
| 2026-05-04 21:32 | 43.19722 | -75.65065 | 8202 ft | 224 kts | 112° |
| 2026-05-04 21:32 | 43.19220 | -75.63045 | 8352 ft | 223 kts | 112° |
| 2026-05-04 21:32 | 43.18724 | -75.61036 | 8512 ft | 221 kts | 112° |
| 2026-05-04 21:33 | 43.16730 | -75.53006 | 9445 ft | 210 kts | 111° |
| 2026-05-04 21:33 | 43.12974 | -75.37982 | 10573 ft | 210 kts | 111° |
| 2026-05-04 21:33 | 43.09141 | -75.22735 | 11631 ft | 214 kts | 111° |
| 2026-05-04 21:33 | 43.06428 | -75.12022 | 12327 ft | 217 kts | 111° |
| 2026-05-04 21:34 | 43.05935 | -75.10069 | 12425 ft | 217 kts | 111° |
| 2026-05-04 21:34 | 43.05442 | -75.08113 | 12537 ft | 218 kts | 111° |
| 2026-05-04 21:34 | 43.04944 | -75.06150 | 12659 ft | 219 kts | 111° |
| 2026-05-04 21:34 | 43.02819 | -74.97804 | 13142 ft | 222 kts | 111° |
| 2026-05-04 21:35 | 42.98706 | -74.81712 | 14067 ft | 225 kts | 111° |
| 2026-05-04 21:35 | 42.94536 | -74.65550 | 14872 ft | 226 kts | 110° |
| 2026-05-04 21:35 | 42.90351 | -74.49391 | 15564 ft | 225 kts | 110° |
| 2026-05-04 21:35 | 42.86198 | -74.33494 | 16178 ft | 225 kts | 110° |
| 2026-05-04 21:36 | 42.81981 | -74.17468 | 16647 ft | 224 kts | 110° |
| 2026-05-04 21:36 | 42.77791 | -74.01591 | 17160 ft | 213 kts | 110° |
| 2026-05-04 21:36 | 42.74947 | -73.90909 | 17399 ft | 202 kts | 110° |
| 2026-05-04 21:36 | 42.74467 | -73.89111 | 17404 ft | 202 kts | 111° |
| 2026-05-04 21:37 | 42.73988 | -73.87320 | 17392 ft | 202 kts | 110° |
| 2026-05-04 21:37 | 42.73496 | -73.85484 | 17220 ft | 214 kts | 111° |
| 2026-05-04 21:37 | 42.72966 | -73.83547 | 17094 ft | 222 kts | 111° |
| 2026-05-04 21:37 | 42.72429 | -73.81542 | 17011 ft | 229 kts | 110° |
| 2026-05-04 21:38 | 42.71891 | -73.79501 | 17036 ft | 230 kts | 111° |
| 2026-05-04 21:38 | 42.71343 | -73.77449 | 17031 ft | 232 kts | 111° |
| 2026-05-04 21:38 | 42.70787 | -73.75389 | 17017 ft | 232 kts | 111° |
| 2026-05-04 21:38 | 42.70233 | -73.73330 | 17016 ft | 232 kts | 111° |
| 2026-05-04 21:39 | 42.69682 | -73.71260 | 17010 ft | 233 kts | 111° |
| 2026-05-04 21:39 | 42.69123 | -73.69185 | 17018 ft | 235 kts | 111° |
| 2026-05-04 21:39 | 42.68559 | -73.67092 | 17020 ft | 237 kts | 111° |
| 2026-05-04 21:39 | 42.67990 | -73.64984 | 17027 ft | 238 kts | 111° |
| 2026-05-04 21:40 | 42.67427 | -73.62891 | 17017 ft | 239 kts | 111° |
| 2026-05-04 21:40 | 42.66852 | -73.60762 | 17032 ft | 240 kts | 111° |
| 2026-05-04 21:40 | 42.66276 | -73.58626 | 17023 ft | 241 kts | 111° |
| 2026-05-04 21:40 | 42.65697 | -73.56479 | 17017 ft | 242 kts | 111° |
| 2026-05-04 21:41 | 42.65113 | -73.54325 | 17024 ft | 244 kts | 111° |
| 2026-05-04 21:41 | 42.64527 | -73.52162 | 17022 ft | 245 kts | 111° |
| 2026-05-04 21:41 | 42.63938 | -73.49988 | 17021 ft | 246 kts | 111° |
| 2026-05-04 21:41 | 42.63345 | -73.47802 | 17022 ft | 246 kts | 111° |
| 2026-05-04 21:42 | 42.62752 | -73.45614 | 17025 ft | 247 kts | 111° |
| 2026-05-04 21:42 | 42.62155 | -73.43420 | 17027 ft | 248 kts | 111° |
| 2026-05-04 21:42 | 42.61557 | -73.41223 | 17032 ft | 248 kts | 111° |
| 2026-05-04 21:42 | 42.60957 | -73.39020 | 17031 ft | 249 kts | 111° |
| 2026-05-04 21:43 | 42.60356 | -73.36808 | 17024 ft | 250 kts | 111° |
| 2026-05-04 21:43 | 42.59751 | -73.34591 | 17026 ft | 251 kts | 111° |
| 2026-05-04 21:43 | 42.59144 | -73.32368 | 17030 ft | 251 kts | 111° |
| 2026-05-04 21:43 | 42.58537 | -73.30151 | 17019 ft | 251 kts | 111° |
| 2026-05-04 21:44 | 42.57931 | -73.27930 | 17013 ft | 252 kts | 111° |
| 2026-05-04 21:44 | 42.57324 | -73.25706 | 17014 ft | 251 kts | 111° |
| 2026-05-04 21:44 | 42.56717 | -73.23492 | 17016 ft | 251 kts | 111° |
| 2026-05-04 21:44 | 42.56107 | -73.21272 | 17014 ft | 251 kts | 111° |
| 2026-05-04 21:45 | 42.55498 | -73.19054 | 17009 ft | 251 kts | 111° |
| 2026-05-04 21:45 | 42.54890 | -73.16837 | 17008 ft | 250 kts | 111° |
| 2026-05-04 21:45 | 42.54282 | -73.14620 | 17010 ft | 251 kts | 111° |
| 2026-05-04 21:45 | 42.53670 | -73.12399 | 17011 ft | 252 kts | 111° |
| 2026-05-04 21:46 | 42.53055 | -73.10172 | 17013 ft | 253 kts | 111° |
| 2026-05-04 21:46 | 42.52440 | -73.07940 | 17018 ft | 253 kts | 111° |
| 2026-05-04 21:46 | 42.51826 | -73.05708 | 17027 ft | 253 kts | 111° |
| 2026-05-04 21:46 | 42.51218 | -73.03505 | 17023 ft | 253 kts | 111° |
| 2026-05-04 21:47 | 42.50601 | -73.01280 | 17027 ft | 252 kts | 111° |
| 2026-05-04 21:47 | 42.49986 | -72.99054 | 17022 ft | 251 kts | 111° |
| 2026-05-04 21:47 | 42.49373 | -72.96843 | 17017 ft | 251 kts | 111° |
| 2026-05-04 21:47 | 42.48762 | -72.94628 | 17018 ft | 250 kts | 111° |
| 2026-05-04 21:48 | 42.48147 | -72.92418 | 17017 ft | 251 kts | 111° |
| 2026-05-04 21:48 | 42.47532 | -72.90202 | 17015 ft | 251 kts | 111° |
| 2026-05-04 21:48 | 42.46918 | -72.87990 | 17017 ft | 251 kts | 111° |
| 2026-05-04 21:48 | 42.46303 | -72.85777 | 17016 ft | 252 kts | 111° |
| 2026-05-04 21:49 | 42.45684 | -72.83558 | 17019 ft | 252 kts | 111° |
| 2026-05-04 21:49 | 42.45064 | -72.81338 | 17019 ft | 252 kts | 111° |
| 2026-05-04 21:49 | 42.44445 | -72.79114 | 17023 ft | 252 kts | 111° |
| 2026-05-04 21:49 | 42.43839 | -72.76888 | 17014 ft | 252 kts | 107° |
| 2026-05-04 21:50 | 42.43812 | -72.74558 | 16995 ft | 245 kts | 71° |
| 2026-05-04 21:50 | 42.44309 | -72.72370 | 17007 ft | 244 kts | 72° |
| 2026-05-04 21:50 | 42.44643 | -72.70107 | 17013 ft | 246 kts | 77° |
| 2026-05-04 21:50 | 42.44970 | -72.67840 | 17009 ft | 245 kts | 74° |
| 2026-05-04 21:51 | 42.45351 | -72.65584 | 17008 ft | 246 kts | 73° |
| 2026-05-04 21:51 | 42.45730 | -72.63329 | 17015 ft | 246 kts | 74° |
| 2026-05-04 21:51 | 42.46096 | -72.61065 | 17028 ft | 246 kts | 74° |
| 2026-05-04 21:51 | 42.46462 | -72.58801 | 17027 ft | 246 kts | 74° |
| 2026-05-04 21:52 | 42.46831 | -72.56532 | 17031 ft | 247 kts | 74° |
| 2026-05-04 21:52 | 42.47202 | -72.54259 | 17031 ft | 247 kts | 74° |
| 2026-05-04 21:52 | 42.47570 | -72.51981 | 17027 ft | 248 kts | 73° |
| 2026-05-04 21:52 | 42.47939 | -72.49701 | 17032 ft | 248 kts | 74° |
| 2026-05-04 21:53 | 42.48308 | -72.47421 | 17032 ft | 248 kts | 74° |
| 2026-05-04 21:53 | 42.48677 | -72.45135 | 17029 ft | 248 kts | 74° |
| 2026-05-04 21:53 | 42.49047 | -72.42845 | 17036 ft | 249 kts | 74° |
| 2026-05-04 21:53 | 42.49415 | -72.40559 | 17034 ft | 249 kts | 74° |
| 2026-05-04 21:54 | 42.49783 | -72.38268 | 17032 ft | 249 kts | 74° |
| 2026-05-04 21:54 | 42.50152 | -72.35978 | 17038 ft | 249 kts | 74° |
| 2026-05-04 21:54 | 42.50518 | -72.33686 | 17030 ft | 249 kts | 74° |
| 2026-05-04 21:54 | 42.50886 | -72.31399 | 17034 ft | 249 kts | 74° |
| 2026-05-04 21:55 | 42.51253 | -72.29102 | 17027 ft | 249 kts | 74° |
| 2026-05-04 21:55 | 42.51619 | -72.26807 | 17036 ft | 249 kts | 74° |
| 2026-05-04 21:55 | 42.51979 | -72.24547 | 17039 ft | 249 kts | 74° |
| 2026-05-04 21:55 | 42.52347 | -72.22249 | 17030 ft | 249 kts | 74° |
| 2026-05-04 21:56 | 42.52711 | -72.19951 | 17033 ft | 249 kts | 74° |
| 2026-05-04 21:56 | 42.53077 | -72.17650 | 17033 ft | 250 kts | 74° |
| 2026-05-04 21:56 | 42.53442 | -72.15349 | 17026 ft | 249 kts | 74° |
| 2026-05-04 21:56 | 42.53806 | -72.13053 | 17027 ft | 249 kts | 74° |
| 2026-05-04 21:57 | 42.54170 | -72.10758 | 17027 ft | 249 kts | 74° |
| 2026-05-04 21:57 | 42.54532 | -72.08462 | 17029 ft | 249 kts | 74° |
| 2026-05-04 21:57 | 42.54895 | -72.06164 | 17026 ft | 249 kts | 74° |
| 2026-05-04 21:57 | 42.55257 | -72.03862 | 17027 ft | 249 kts | 74° |
| 2026-05-04 21:58 | 42.55618 | -72.01567 | 17022 ft | 249 kts | 74° |
| 2026-05-04 21:58 | 42.55979 | -71.99273 | 17021 ft | 249 kts | 74° |
| 2026-05-04 21:58 | 42.56341 | -71.96970 | 17014 ft | 250 kts | 74° |
| 2026-05-04 21:58 | 42.56700 | -71.94664 | 17014 ft | 250 kts | 74° |
| 2026-05-04 21:59 | 42.57062 | -71.92361 | 17014 ft | 250 kts | 75° |
| 2026-05-04 21:59 | 42.57423 | -71.90057 | 17013 ft | 250 kts | 74° |
| 2026-05-04 21:59 | 42.57780 | -71.87754 | 17010 ft | 250 kts | 75° |
| 2026-05-04 21:59 | 42.58140 | -71.85450 | 17011 ft | 250 kts | 75° |
| 2026-05-04 22:00 | 42.58499 | -71.83146 | 17009 ft | 249 kts | 74° |
| 2026-05-04 22:00 | 42.58569 | -71.80805 | 16930 ft | 252 kts | 103° |
| 2026-05-04 22:00 | 42.58010 | -71.78589 | 17020 ft | 247 kts | 105° |
| 2026-05-04 22:00 | 42.57692 | -71.76296 | 17019 ft | 247 kts | 97° |
| 2026-05-04 22:01 | 42.57412 | -71.73994 | 17008 ft | 248 kts | 101° |
| 2026-05-04 22:01 | 42.57035 | -71.71711 | 17011 ft | 248 kts | 103° |
| 2026-05-04 22:01 | 42.56655 | -71.69427 | 17017 ft | 248 kts | 102° |
| 2026-05-04 22:01 | 42.56297 | -71.67140 | 17015 ft | 248 kts | 101° |
| 2026-05-04 22:02 | 42.55936 | -71.64846 | 17016 ft | 249 kts | 101° |
| 2026-05-04 22:02 | 42.55577 | -71.62584 | 17012 ft | 249 kts | 101° |
| 2026-05-04 22:02 | 42.55208 | -71.60263 | 17012 ft | 249 kts | 102° |
| 2026-05-04 22:02 | 42.54817 | -71.58004 | 17004 ft | 250 kts | 106° |
| 2026-05-04 22:03 | 42.54482 | -71.56479 | 17005 ft | 250 kts | 107° |
| 2026-05-04 22:03 | 42.53997 | -71.54220 | 17013 ft | 250 kts | 105° |
| 2026-05-04 22:03 | 42.53384 | -71.51213 | 17002 ft | 250 kts | 105° |
| 2026-05-04 22:03 | 42.52915 | -71.48944 | 17000 ft | 250 kts | 105° |
| 2026-05-04 22:04 | 42.52443 | -71.46676 | 16998 ft | 250 kts | 105° |
| 2026-05-04 22:04 | 42.51972 | -71.44410 | 16994 ft | 250 kts | 105° |
| 2026-05-04 22:04 | 42.51654 | -71.42879 | 16996 ft | 250 kts | 105° |
| 2026-05-04 22:04 | 42.51181 | -71.40610 | 16984 ft | 250 kts | 105° |
| 2026-05-04 22:05 | 42.50705 | -71.38337 | 16982 ft | 251 kts | 105° |
| 2026-05-04 22:05 | 42.50234 | -71.36060 | 16983 ft | 251 kts | 105° |
| 2026-05-04 22:05 | 42.49776 | -71.33779 | 16984 ft | 251 kts | 104° |
| 2026-05-04 22:05 | 42.49331 | -71.31520 | 16997 ft | 251 kts | 105° |
| 2026-05-04 22:06 | 42.48855 | -71.29239 | 16991 ft | 252 kts | 103° |
| 2026-05-04 22:06 | 42.48503 | -71.26921 | 16993 ft | 251 kts | 101° |
| 2026-05-04 22:06 | 42.48078 | -71.24623 | 16981 ft | 252 kts | 106° |
| 2026-05-04 22:06 | 42.47601 | -71.22266 | 16519 ft | 270 kts | 105° |
| 2026-05-04 22:07 | 42.47088 | -71.19685 | 15641 ft | 297 kts | 105° |
| 2026-05-04 22:07 | 42.46537 | -71.16891 | 14795 ft | 316 kts | 105° |
| 2026-05-04 22:07 | 42.45966 | -71.13946 | 13945 ft | 329 kts | 105° |
| 2026-05-04 22:07 | 42.45382 | -71.10903 | 13061 ft | 338 kts | 105° |
| 2026-05-04 22:08 | 42.44818 | -71.07784 | 12079 ft | 343 kts | 101° |
| 2026-05-04 22:08 | 42.44843 | -71.04560 | 11280 ft | 342 kts | 78° |
| 2026-05-04 22:08 | 42.45412 | -71.01486 | 10687 ft | 333 kts | 75° |
| 2026-05-04 22:08 | 42.45857 | -70.98427 | 10137 ft | 329 kts | 77° |
| 2026-05-04 22:09 | 42.46247 | -70.95404 | 9740 ft | 321 kts | 77° |
| 2026-05-04 22:09 | 42.46625 | -70.92455 | 9262 ft | 315 kts | 78° |
| 2026-05-04 22:09 | 42.46999 | -70.89550 | 8805 ft | 311 kts | 78° |
| 2026-05-04 22:09 | 42.47372 | -70.86691 | 8342 ft | 307 kts | 78° |
| 2026-05-04 22:10 | 42.47740 | -70.83901 | 7895 ft | 303 kts | 78° |
| 2026-05-04 22:10 | 42.48121 | -70.81105 | 7447 ft | 300 kts | 78° |
| 2026-05-04 22:10 | 42.48512 | -70.78337 | 7005 ft | 298 kts | 78° |
| 2026-05-04 22:10 | 42.48905 | -70.75595 | 6577 ft | 295 kts | 78° |
| 2026-05-04 22:11 | 42.49302 | -70.72876 | 6154 ft | 293 kts | 78° |
| 2026-05-04 22:11 | 42.49701 | -70.70182 | 5712 ft | 290 kts | 80° |
| 2026-05-04 22:11 | 42.49694 | -70.67470 | 5217 ft | 288 kts | 102° |
| 2026-05-04 22:11 | 42.48996 | -70.64970 | 4742 ft | 281 kts | 124° |
| 2026-05-04 22:12 | 42.47727 | -70.63030 | 4278 ft | 271 kts | 146° |
| 2026-05-04 22:12 | 42.46056 | -70.62063 | 3789 ft | 257 kts | 177° |
| 2026-05-04 22:12 | 42.44361 | -70.62406 | 3290 ft | 243 kts | 208° |
| 2026-05-04 22:12 | 42.43179 | -70.63891 | 3027 ft | 226 kts | 241° |
| 2026-05-04 22:13 | 42.42352 | -70.65574 | 3053 ft | 207 kts | 234° |
| 2026-05-04 22:13 | 42.41623 | -70.67173 | 3037 ft | 194 kts | 247° |
| 2026-05-04 22:13 | 42.41254 | -70.68872 | 3042 ft | 184 kts | 257° |
| 2026-05-04 22:13 | 42.40990 | -70.70532 | 3048 ft | 177 kts | 256° |
| 2026-05-04 22:14 | 42.40723 | -70.72125 | 3047 ft | 171 kts | 256° |
| 2026-05-04 22:14 | 42.40450 | -70.73665 | 3048 ft | 166 kts | 256° |
| 2026-05-04 22:14 | 42.40187 | -70.75164 | 3039 ft | 162 kts | 256° |
| 2026-05-04 22:14 | 42.39929 | -70.76621 | 3043 ft | 157 kts | 255° |
| 2026-05-04 22:15 | 42.39679 | -70.78040 | 3035 ft | 154 kts | 256° |
| 2026-05-04 22:15 | 42.39428 | -70.79472 | 2882 ft | 160 kts | 255° |
| 2026-05-04 22:15 | 42.39162 | -70.80959 | 2733 ft | 160 kts | 255° |
| 2026-05-04 22:15 | 42.38908 | -70.82421 | 2476 ft | 162 kts | 255° |
| 2026-05-04 22:16 | 42.38642 | -70.83903 | 2238 ft | 162 kts | 255° |
| 2026-05-04 22:16 | 42.38393 | -70.85350 | 2030 ft | 159 kts | 255° |
| 2026-05-04 22:16 | 42.38132 | -70.86796 | 1799 ft | 157 kts | 253° |
| 2026-05-04 22:16 | 42.37879 | -70.88248 | 1584 ft | 157 kts | 256° |
| 2026-05-04 22:17 | 42.37625 | -70.89680 | 1366 ft | 157 kts | 255° |
| 2026-05-04 22:17 | 42.37325 | -70.91110 | 1162 ft | 160 kts | 252° |
| 2026-05-04 22:17 | 42.37046 | -70.92522 | 1099 ft | 151 kts | 255° |
| 2026-05-04 22:17 | 42.36821 | -70.93857 | 982 ft | 145 kts | 255° |
| 2026-05-04 22:18 | 42.36625 | -70.95196 | 759 ft | 142 kts | 256° |
| 2026-05-04 22:18 | 42.36425 | -70.96489 | 495 ft | 138 kts | 252° |
| 2026-05-04 22:18 | 42.36199 | -70.97732 | 257 ft | 133 kts | 248° |
| 2026-05-04 22:18 | 42.35995 | -70.98918 | 49 ft | 129 kts | 250° |
| 2026-05-04 22:19 | 42.35786 | -71.00072 | 26 ft | 119 kts | 245° |
| 2026-05-04 22:19 | 42.35602 | -71.01075 | 30 ft | 105 kts | 255° |
| 2026-05-04 22:19 | 42.35462 | -71.01744 | 25 ft | 30 kts | 290° |
| 2026-05-04 22:19 | 42.35475 | -71.01773 | 29 ft | 2 kts | 24° |
| 2026-05-04 22:20 | 42.35533 | -71.01722 | 25 ft | 15 kts | 25° |
| 2026-05-04 22:20 | 42.35640 | -71.01670 | 27 ft | 18 kts | 19° |
| 2026-05-04 22:20 | 42.35767 | -71.01609 | 27 ft | 19 kts | 19° |
| 2026-05-04 22:20 | 42.35813 | -71.01588 | 25 ft | 0 kts | 19° |
| 2026-05-04 22:21 | 42.35830 | -71.01580 | 25 ft | 10 kts | 17° |
| 2026-05-04 22:21 | 42.35888 | -71.01610 | 27 ft | 13 kts | 288° |
| 2026-05-04 22:21 | 42.35916 | -71.01795 | 25 ft | 25 kts | 287° |
| 2026-05-04 22:21 | 42.35989 | -71.01979 | 27 ft | 23 kts | 301° |